createdAt,value
2016-05-03T00:00:38.665Z,63.35
2016-05-03T00:01:38.636Z,62.21
2016-05-03T00:02:38.607Z,61.07
2016-05-03T00:03:38.438Z,61.25
2016-05-03T00:04:38.582Z,61.63
2016-05-03T00:05:38.569Z,61.73
2016-05-03T00:06:38.556Z,62.02
2016-05-03T00:07:38.559Z,62.68
2016-05-03T00:08:38.545Z,62.88
2016-05-03T00:09:38.533Z,62.02
2016-05-03T00:10:38.520Z,61.92
2016-05-03T00:11:38.507Z,62.3
2016-05-03T00:12:38.494Z,61.07
2016-05-03T00:13:38.496Z,62.68
2016-05-03T00:14:38.468Z,63.16
2016-05-03T00:15:38.456Z,62.81
2016-05-03T00:16:38.458Z,64.4
2016-05-03T00:17:38.429Z,63.92
2016-05-03T00:18:38.401Z,64.5
2016-05-03T00:19:38.248Z,64.88
2016-05-03T00:20:38.390Z,64.69
2016-05-03T00:21:38.378Z,63.92
2016-05-03T00:22:38.271Z,63.92
2016-05-03T00:23:38.352Z,63.35
2016-05-03T00:24:38.339Z,63.16
2016-05-03T00:25:38.331Z,63.07
2016-05-03T00:26:38.158Z,62.97
2016-05-03T00:27:38.302Z,61.54
2016-05-03T00:28:38.678Z,64.21
2016-05-03T00:29:38.289Z,62.97
2016-05-03T00:30:38.265Z,62.78
2016-05-03T00:31:38.254Z,64.21
2016-05-03T00:32:38.241Z,63.83
2016-05-03T00:33:38.071Z,62.4
2016-05-03T00:34:38.214Z,63.73
2016-05-03T00:35:38.202Z,62.78
2016-05-03T00:36:38.188Z,63.26
2016-05-03T00:37:39.757Z,64.02
2016-05-03T00:38:38.166Z,65.26
2016-05-03T00:39:38.152Z,64.4
2016-05-03T00:40:37.984Z,63.45
2016-05-03T00:41:38.142Z,64.5
2016-05-03T00:42:38.130Z,64.5
2016-05-03T00:43:38.101Z,64.69
2016-05-03T00:44:38.104Z,65.93
2016-05-03T00:45:38.075Z,64.4
2016-05-03T00:46:38.078Z,64.21
2016-05-03T00:47:38.065Z,64.31
2016-05-03T00:48:38.037Z,64.21
2016-05-03T00:49:38.023Z,66.02
2016-05-03T00:50:38.011Z,65.93
2016-05-03T00:51:38.014Z,66.98
2016-05-03T00:52:38.000Z,65.07
2016-05-03T00:53:37.815Z,66.02
2016-05-03T00:54:37.959Z,66.41
2016-05-03T00:55:37.945Z,66.5
2016-05-03T00:56:37.948Z,66.5
2016-05-03T00:57:37.920Z,66.6
2016-05-03T00:58:37.922Z,66.5
2016-05-03T00:59:37.910Z,68.12
2016-05-03T01:00:37.897Z,68.12
2016-05-03T01:01:37.883Z,67.93
2016-05-03T01:02:37.872Z,68.22
2016-05-03T01:03:37.858Z,67.46
2016-05-03T01:04:37.844Z,67.55
2016-05-03T01:05:37.833Z,67.27
2016-05-03T01:06:37.819Z,66.69
2016-05-03T01:07:37.807Z,67.36
2016-05-03T01:08:37.793Z,67.36
2016-05-03T01:09:37.781Z,66.88
2016-05-03T01:10:37.767Z,67.27
2016-05-03T01:11:37.755Z,66.88
2016-05-03T01:12:37.585Z,66.98
2016-05-03T01:13:37.728Z,67.27
2016-05-03T01:14:37.732Z,67.74
2016-05-03T01:15:37.734Z,67.55
2016-05-03T01:16:37.690Z,67.93
2016-05-03T01:17:37.676Z,68.32
2016-05-03T01:18:37.680Z,67.65
2016-05-03T01:19:37.651Z,67.07
2016-05-03T01:20:37.638Z,67.55
2016-05-03T01:21:37.625Z,68.03
2016-05-03T01:22:37.472Z,68.41
2016-05-03T01:23:37.615Z,68.41
2016-05-03T01:24:37.587Z,69.08
2016-05-03T01:25:37.589Z,69.84
2016-05-03T01:26:37.576Z,69.17
2016-05-03T01:27:37.564Z,68.6
2016-05-03T01:28:37.550Z,68.41
2016-05-03T01:29:37.537Z,68.98
2016-05-03T01:30:37.522Z,69.08
2016-05-03T01:31:37.508Z,68.41
2016-05-03T01:32:37.497Z,68.98
2016-05-03T01:33:37.499Z,68.88
2016-05-03T01:34:37.314Z,67.93
2016-05-03T01:35:37.458Z,68.41
2016-05-03T01:36:37.288Z,68.6
2016-05-03T01:37:37.978Z,68.12
2016-05-03T01:38:37.419Z,67.93
2016-05-03T01:39:37.405Z,68.03
2016-05-03T01:40:37.393Z,68.03
2016-05-03T01:41:37.224Z,67.46
2016-05-03T01:42:37.367Z,67.55
2016-05-03T01:43:37.354Z,68.12
2016-05-03T01:44:37.341Z,68.6
2016-05-03T01:45:37.327Z,68.03
2016-05-03T01:46:37.174Z,67.46
2016-05-03T01:47:37.302Z,67.27
2016-05-03T01:48:37.290Z,67.36
2016-05-03T01:49:37.276Z,67.36
2016-05-03T01:50:37.123Z,67.17
2016-05-03T01:51:37.251Z,67.36
2016-05-03T01:52:37.253Z,66.78
2016-05-03T01:53:37.225Z,66.78
2016-05-03T01:54:37.227Z,66.88
2016-05-03T01:55:37.229Z,67.46
2016-05-03T01:56:37.202Z,67.55
2016-05-03T01:57:37.189Z,67.83
2016-05-03T01:58:37.175Z,67.74
2016-05-03T01:59:37.162Z,67.46
2016-05-03T02:00:37.150Z,67.74
2016-05-03T02:01:37.153Z,67.46
2016-05-03T02:02:37.123Z,67.74
2016-05-03T02:03:37.111Z,67.27
2016-05-03T02:04:37.098Z,67.36
2016-05-03T02:05:37.086Z,67.93
2016-05-03T02:06:37.073Z,68.32
2016-05-03T02:07:37.090Z,67.93
2016-05-03T02:08:36.890Z,67.93
2016-05-03T02:09:37.064Z,67.74
2016-05-03T02:10:37.036Z,68.12
2016-05-03T02:11:36.852Z,68.41
2016-05-03T02:12:36.994Z,67.17
2016-05-03T02:13:36.997Z,66.98
2016-05-03T02:14:36.969Z,67.55
2016-05-03T02:15:36.971Z,68.03
2016-05-03T02:16:36.943Z,67.93
2016-05-03T02:17:36.930Z,68.51
2016-05-03T02:18:36.760Z,68.22
2016-05-03T02:19:36.904Z,68.06
2016-05-03T02:20:36.891Z,67.68
2016-05-03T02:21:36.879Z,67.97
2016-05-03T02:22:36.709Z,69.11
2016-05-03T02:23:36.868Z,69.11
2016-05-03T02:24:36.698Z,69.21
2016-05-03T02:25:36.842Z,69.11
2016-05-03T02:26:36.813Z,69.11
2016-05-03T02:27:36.801Z,69.11
2016-05-03T02:28:36.990Z,69.02
2016-05-03T02:29:36.790Z,69.27
2016-05-03T02:30:36.762Z,68.92
2016-05-03T02:31:36.765Z,70.07
2016-05-03T02:32:36.751Z,69.49
2016-05-03T02:33:36.722Z,68.98
2016-05-03T02:34:36.726Z,69.27
2016-05-03T02:35:36.697Z,69.08
2016-05-03T02:36:36.715Z,69.21
2016-05-03T02:37:36.952Z,68.79
2016-05-03T02:38:36.675Z,69.11
2016-05-03T02:39:36.661Z,69.08
2016-05-03T02:40:36.647Z,68.79
2016-05-03T02:41:36.635Z,69.17
2016-05-03T02:42:36.638Z,69.08
2016-05-03T02:43:36.609Z,68.88
2016-05-03T02:44:36.597Z,68.88
2016-05-03T02:45:36.583Z,68.12
2016-05-03T02:46:36.571Z,68.16
2016-05-03T02:47:36.402Z,68.41
2016-05-03T02:48:36.544Z,68.22
2016-05-03T02:49:36.563Z,68.35
2016-05-03T02:50:36.518Z,69.11
2016-05-03T02:51:36.506Z,68.79
2016-05-03T02:52:36.680Z,69.31
2016-05-03T02:53:36.340Z,69.27
2016-05-03T02:54:36.468Z,69.17
2016-05-03T02:55:36.455Z,69.46
2016-05-03T02:56:36.441Z,69.31
2016-05-03T02:57:36.429Z,69.49
2016-05-03T02:58:36.432Z,69.02
2016-05-03T02:59:36.418Z,69.21
2016-05-03T03:00:36.234Z,68.98
2016-05-03T03:01:36.376Z,69.65
2016-05-03T03:02:36.207Z,69.21
2016-05-03T03:03:36.351Z,69.68
2016-05-03T03:04:36.338Z,69.27
2016-05-03T03:05:36.340Z,69.78
2016-05-03T03:06:36.328Z,70.13
2016-05-03T03:07:36.331Z,70.51
2016-05-03T03:08:36.286Z,70.22
2016-05-03T03:09:36.288Z,70.61
2016-05-03T03:10:36.261Z,70.64
2016-05-03T03:11:36.263Z,70.51
2016-05-03T03:12:36.234Z,70.64
2016-05-03T03:13:36.221Z,70.98
2016-05-03T03:14:36.412Z,70.42
2016-05-03T03:15:36.211Z,70.89
2016-05-03T03:16:36.183Z,71.02
2016-05-03T03:17:36.170Z,70.51
2016-05-03T03:18:36.157Z,71.08
2016-05-03T03:19:36.160Z,71.37
2016-05-03T03:20:35.990Z,71.18
2016-05-03T03:21:36.133Z,71.46
2016-05-03T03:22:37.277Z,71.27
2016-05-03T03:23:36.108Z,71.27
2016-05-03T03:24:36.079Z,71.46
2016-05-03T03:25:36.066Z,71.66
2016-05-03T03:26:36.053Z,70.98
2016-05-03T03:27:36.040Z,70.98
2016-05-03T03:28:36.027Z,71.18
2016-05-03T03:29:36.015Z,70.61
2016-05-03T03:30:36.018Z,71.18
2016-05-03T03:31:35.989Z,70.42
2016-05-03T03:32:35.991Z,70.89
2016-05-03T03:33:35.963Z,70.89
2016-05-03T03:34:35.965Z,70.79
2016-05-03T03:35:35.953Z,70.7
2016-05-03T03:36:35.940Z,70.61
2016-05-03T03:37:35.926Z,70.61
2016-05-03T03:38:35.914Z,69.84
2016-05-03T03:39:35.901Z,69.93
2016-05-03T03:40:35.887Z,69.93
2016-05-03T03:41:35.719Z,69.74
2016-05-03T03:42:35.878Z,69.56
2016-05-03T03:43:35.850Z,69.27
2016-05-03T03:44:35.837Z,69.46
2016-05-03T03:45:35.822Z,69.27
2016-05-03T03:46:35.810Z,68.98
2016-05-03T03:47:35.797Z,69.08
2016-05-03T03:48:35.784Z,68.7
2016-05-03T03:49:35.771Z,68.7
2016-05-03T03:50:35.759Z,69.65
2016-05-03T03:51:35.746Z,69.17
2016-05-03T03:52:36.264Z,68.7
2016-05-03T03:53:35.563Z,68.6
2016-05-03T03:54:35.550Z,68.79
2016-05-03T03:55:35.693Z,69.27
2016-05-03T03:56:35.681Z,69.27
2016-05-03T03:57:35.683Z,69.17
2016-05-03T03:58:35.654Z,69.37
2016-05-03T03:59:35.485Z,68.98
2016-05-03T04:00:35.629Z,69.08
2016-05-03T04:01:35.460Z,69.37
2016-05-03T04:02:35.604Z,69.08
2016-05-03T04:03:35.590Z,69.56
2016-05-03T04:04:35.577Z,69.37
2016-05-03T04:05:35.565Z,69.74
2016-05-03T04:06:35.552Z,69.46
2016-05-03T04:07:35.554Z,69.46
2016-05-03T04:08:35.541Z,69.56
2016-05-03T04:09:35.356Z,69.56
2016-05-03T04:10:35.343Z,70.03
2016-05-03T04:11:35.487Z,69.56
2016-05-03T04:12:35.474Z,69.84
2016-05-03T04:13:35.462Z,70.32
2016-05-03T04:14:35.447Z,70.03
2016-05-03T04:15:35.435Z,70.42
2016-05-03T04:16:35.422Z,71.18
2016-05-03T04:17:35.409Z,70.79
2016-05-03T04:18:35.397Z,71.18
2016-05-03T04:19:35.399Z,71.37
2016-05-03T04:20:35.370Z,71.56
2016-05-03T04:21:35.362Z,71.27
2016-05-03T04:22:35.411Z,70.98
2016-05-03T04:23:35.445Z,72.13
2016-05-03T04:24:35.307Z,71.75
2016-05-03T04:25:35.497Z,72.03
2016-05-03T04:26:35.527Z,72.42
2016-05-03T04:27:35.531Z,71.94
2016-05-03T04:28:35.737Z,71.84
2016-05-03T04:29:35.538Z,72.42
2016-05-03T04:30:35.541Z,72.23
2016-05-03T04:31:35.544Z,71.75
2016-05-03T04:32:35.536Z,72.03
2016-05-03T04:33:35.546Z,72.32
2016-05-03T04:34:35.524Z,72.32
2016-05-03T04:35:35.517Z,72.51
2016-05-03T04:36:35.508Z,72.89
2016-05-03T04:37:35.514Z,72.71
2016-05-03T04:38:35.488Z,72.61
2016-05-03T04:39:35.477Z,72.32
2016-05-03T04:40:35.467Z,73.37
2016-05-03T04:41:35.456Z,72.99
2016-05-03T04:42:35.444Z,73.66
2016-05-03T04:43:35.276Z,73.94
2016-05-03T04:44:35.419Z,74.42
2016-05-03T04:45:35.408Z,74.8
2016-05-03T04:46:35.395Z,75.28
2016-05-03T04:47:35.383Z,75.47
2016-05-03T04:48:35.370Z,75.47
2016-05-03T04:49:35.357Z,76.04
2016-05-03T04:50:35.345Z,76.62
2016-05-03T04:51:35.348Z,77.38
2016-05-03T04:52:35.351Z,78.43
2016-05-03T04:53:35.306Z,79.96
2016-05-03T04:54:35.293Z,79.86
2016-05-03T04:55:35.281Z,80.91
2016-05-03T04:56:35.268Z,81.77
2016-05-03T04:57:35.098Z,83.39
2016-05-03T04:58:35.367Z,85.11
2016-05-03T04:59:35.229Z,85.97
2016-05-03T05:00:35.215Z,86.44
2016-05-03T05:01:35.203Z,87.26
2016-05-03T05:02:35.190Z,87.64
2016-05-03T05:03:35.178Z,88.21
2016-05-03T05:04:35.164Z,88.4
2016-05-03T05:05:35.167Z,88.88
2016-05-03T05:06:35.153Z,89.26
2016-05-03T05:07:35.375Z,88.31
2016-05-03T05:08:35.112Z,88.31
2016-05-03T05:09:35.100Z,85.54
2016-05-03T05:10:35.274Z,84.83
2016-05-03T05:11:35.089Z,86.45
2016-05-03T05:12:35.061Z,86.65
2016-05-03T05:13:35.047Z,86.55
2016-05-03T05:14:34.878Z,86.26
2016-05-03T05:15:35.006Z,86.45
2016-05-03T05:16:34.852Z,86.45
2016-05-03T05:17:34.980Z,85.55
2016-05-03T05:18:34.968Z,86.32
2016-05-03T05:19:34.954Z,86.69
2016-05-03T05:20:34.941Z,86.12
2016-05-03T05:21:34.929Z,86.32
2016-05-03T05:22:34.932Z,85.93
2016-05-03T05:23:34.902Z,86.79
2016-05-03T05:24:34.905Z,87.41
2016-05-03T05:25:34.737Z,87.23
2016-05-03T05:26:34.864Z,88.18
2016-05-03T05:27:34.851Z,87.89
2016-05-03T05:28:34.822Z,88.27
2016-05-03T05:29:34.825Z,88.65
2016-05-03T05:30:34.812Z,88.08
2016-05-03T05:31:34.799Z,88.75
2016-05-03T05:32:34.614Z,89.32
2016-05-03T05:33:34.758Z,89.22
2016-05-03T05:34:34.745Z,89.03
2016-05-03T05:35:34.731Z,89.32
2016-05-03T05:36:34.562Z,89.41
2016-05-03T05:37:34.565Z,89.03
2016-05-03T05:38:34.692Z,90.36
2016-05-03T05:39:34.681Z,90.46
2016-05-03T05:40:34.667Z,90.27
2016-05-03T05:41:34.654Z,90.46
2016-05-03T05:42:34.485Z,89.98
2016-05-03T05:43:34.628Z,90.08
2016-05-03T05:44:34.599Z,89.51
2016-05-03T05:45:34.602Z,89.98
2016-05-03T05:46:34.574Z,89.22
2016-05-03T05:47:34.561Z,89.7
2016-05-03T05:48:34.548Z,90.27
2016-05-03T05:49:34.566Z,91.22
2016-05-03T05:50:34.522Z,90.36
2016-05-03T05:51:34.510Z,90.65
2016-05-03T05:52:35.043Z,90.65
2016-05-03T05:53:34.483Z,90.08
2016-05-03T05:54:34.299Z,90.84
2016-05-03T05:55:34.457Z,90.27
2016-05-03T05:56:34.429Z,89.98
2016-05-03T05:57:34.416Z,90.17
2016-05-03T05:58:34.403Z,89.98
2016-05-03T05:59:34.390Z,89.7
2016-05-03T06:00:34.377Z,90.17
2016-05-03T06:01:34.223Z,90.27
2016-05-03T06:02:34.351Z,90.65
2016-05-03T06:03:34.338Z,90.36
2016-05-03T06:04:34.326Z,90.27
2016-05-03T06:05:34.298Z,90.75
2016-05-03T06:06:34.300Z,91.41
2016-05-03T06:07:34.239Z,90.08
2016-05-03T06:08:34.102Z,90.65
2016-05-03T06:09:34.245Z,90.75
2016-05-03T06:10:34.233Z,90.17
2016-05-03T06:11:34.220Z,89.98
2016-05-03T06:12:34.206Z,90.46
2016-05-03T06:13:34.193Z,91.41
2016-05-03T06:14:34.181Z,90.84
2016-05-03T06:15:34.167Z,90.17
2016-05-03T06:16:34.155Z,90.17
2016-05-03T06:17:34.142Z,90.65
2016-05-03T06:18:34.114Z,90.65
2016-05-03T06:19:34.116Z,90.27
2016-05-03T06:20:34.088Z,89.98
2016-05-03T06:21:34.074Z,90.27
2016-05-03T06:22:34.077Z,89.61
2016-05-03T06:23:34.049Z,90.56
2016-05-03T06:24:34.036Z,90.08
2016-05-03T06:25:34.023Z,90.46
2016-05-03T06:26:34.009Z,89.79
2016-05-03T06:27:33.997Z,89.03
2016-05-03T06:28:34.593Z,89.22
2016-05-03T06:29:33.987Z,89.89
2016-05-03T06:30:33.943Z,89.98
2016-05-03T06:31:33.789Z,89.32
2016-05-03T06:32:33.932Z,88.98
2016-05-03T06:33:33.904Z,88.93
2016-05-03T06:34:33.890Z,89.07
2016-05-03T06:35:33.893Z,88.41
2016-05-03T06:36:33.865Z,88.79
2016-05-03T06:37:34.368Z,89.26
2016-05-03T06:38:33.838Z,89.46
2016-05-03T06:39:33.826Z,89.26
2016-05-03T06:40:33.656Z,89.07
2016-05-03T06:41:33.800Z,88.51
2016-05-03T06:42:33.787Z,88.31
2016-05-03T06:43:33.775Z,88.7
2016-05-03T06:44:33.761Z,89.26
2016-05-03T06:45:33.591Z,88.6
2016-05-03T06:46:33.735Z,89.26
2016-05-03T06:47:33.707Z,89.17
2016-05-03T06:48:33.710Z,88.51
2016-05-03T06:49:33.697Z,89.26
2016-05-03T06:50:33.668Z,89.07
2016-05-03T06:51:33.686Z,89.26
2016-05-03T06:52:33.674Z,89.65
2016-05-03T06:53:33.488Z,89.55
2016-05-03T06:54:33.632Z,89.17
2016-05-03T06:55:33.603Z,89.36
2016-05-03T06:56:33.607Z,88.89
2016-05-03T06:57:33.577Z,89.07
2016-05-03T06:58:33.408Z,88.31
2016-05-03T06:59:33.552Z,88.51
2016-05-03T07:00:33.554Z,88.51
2016-05-03T07:01:33.541Z,88.08
2016-05-03T07:02:33.513Z,87.74
2016-05-03T07:03:33.500Z,88.18
2016-05-03T07:04:33.487Z,88.46
2016-05-03T07:05:33.474Z,88.18
2016-05-03T07:06:33.462Z,88.18
2016-05-03T07:07:34.651Z,88.93
2016-05-03T07:08:33.435Z,87.89
2016-05-03T07:09:33.422Z,87.41
2016-05-03T07:10:33.253Z,88.41
2016-05-03T07:11:33.397Z,87.65
2016-05-03T07:12:33.212Z,87.55
2016-05-03T07:13:33.371Z,88.41
2016-05-03T07:14:33.358Z,88.51
2016-05-03T07:15:33.189Z,86.32
2016-05-03T07:16:33.331Z,86.41
2016-05-03T07:17:33.303Z,86.32
2016-05-03T07:18:33.291Z,86.79
2016-05-03T07:19:33.277Z,85.97
2016-05-03T07:20:33.264Z,86.07
2016-05-03T07:21:33.252Z,85.88
2016-05-03T07:22:33.348Z,86.36
2016-05-03T07:23:33.241Z,86.45
2016-05-03T07:24:33.213Z,85.78
2016-05-03T07:25:33.200Z,86.07
2016-05-03T07:26:33.202Z,85.41
2016-05-03T07:27:33.190Z,86.45
2016-05-03T07:28:33.160Z,85.02
2016-05-03T07:29:33.149Z,84.26
2016-05-03T07:30:33.135Z,82.83
2016-05-03T07:31:33.122Z,83.93
2016-05-03T07:32:32.954Z,83.26
2016-05-03T07:33:33.112Z,82.41
2016-05-03T07:34:33.099Z,83.17
2016-05-03T07:35:33.086Z,83.26
2016-05-03T07:36:33.057Z,83.45
2016-05-03T07:37:33.060Z,84.12
2016-05-03T07:38:33.031Z,83.84
2016-05-03T07:39:33.019Z,83.36
2016-05-03T07:40:33.006Z,83.93
2016-05-03T07:41:32.993Z,84.22
2016-05-03T07:42:32.981Z,84.03
2016-05-03T07:43:32.967Z,83.74
2016-05-03T07:44:32.814Z,83.07
2016-05-03T07:45:32.941Z,83.17
2016-05-03T07:46:32.928Z,83.36
2016-05-03T07:47:32.915Z,83.65
2016-05-03T07:48:32.903Z,84.03
2016-05-03T07:49:32.889Z,83.65
2016-05-03T07:50:32.877Z,83.45
2016-05-03T07:51:32.880Z,83.93
2016-05-03T07:52:32.850Z,84.55
2016-05-03T07:53:32.838Z,84.55
2016-05-03T07:54:32.825Z,84.45
2016-05-03T07:55:32.812Z,82.83
2016-05-03T07:56:32.799Z,82.73
2016-05-03T07:57:32.785Z,82.73
2016-05-03T07:58:35.569Z,80.83
2016-05-03T07:59:32.760Z,79.63
2016-05-03T08:00:32.747Z,80.39
2016-05-03T08:01:32.735Z,79.25
2016-05-03T08:02:32.738Z,79.63
2016-05-03T08:03:32.724Z,80.2
2016-05-03T08:04:32.696Z,78.39
2016-05-03T08:05:32.683Z,78.39
2016-05-03T08:06:32.670Z,77.72
2016-05-03T08:07:32.704Z,77.15
2016-05-03T08:08:32.660Z,77.53
2016-05-03T08:09:32.631Z,77.06
2016-05-03T08:10:32.633Z,78.62
2016-05-03T08:11:32.605Z,77.19
2016-05-03T08:12:32.607Z,74.23
2016-05-03T08:13:32.594Z,75.13
2016-05-03T08:14:32.582Z,78.09
2016-05-03T08:15:32.584Z,73.12
2016-05-03T08:16:32.587Z,64.69
2016-05-03T08:17:32.559Z,62.74
2016-05-03T08:18:32.545Z,60.41
2016-05-03T08:19:32.533Z,59.01
2016-05-03T08:20:32.519Z,55.78
2016-05-03T08:21:32.522Z,55.04
2016-05-03T08:22:32.369Z,55.33
2016-05-03T08:23:32.356Z,54.94
2016-05-03T08:24:32.499Z,54.15
2016-05-03T08:25:32.486Z,52.76
2016-05-03T08:26:32.489Z,51.35
2016-05-03T08:27:32.491Z,50.78
2016-05-03T08:28:32.479Z,52.79
2016-05-03T08:29:32.482Z,54.91
2016-05-03T08:30:32.469Z,51.71
2016-05-03T08:31:32.471Z,54.71
2016-05-03T08:32:32.458Z,57.86
2016-05-03T08:33:32.460Z,58.98
2016-05-03T08:34:32.448Z,63.06
2016-05-03T08:35:32.451Z,62.81
2016-05-03T08:36:32.453Z,63.23
2016-05-03T08:37:32.440Z,63.39
2016-05-03T08:38:32.427Z,56.82
2016-05-03T08:39:32.414Z,55.88
2016-05-03T08:40:32.432Z,53.83
2016-05-03T08:41:32.420Z,52.64
2016-05-03T08:42:32.406Z,49.24
2016-05-03T08:43:32.409Z,47.71
2016-05-03T08:44:32.398Z,48.4
2016-05-03T08:45:32.400Z,46.62
2016-05-03T08:46:32.386Z,42.12
2016-05-03T08:47:32.374Z,42.14
2016-05-03T08:48:32.392Z,43.66
2016-05-03T08:49:32.410Z,45.37
2016-05-03T08:50:32.381Z,44.12
2016-05-03T08:51:32.228Z,45.08
2016-05-03T08:52:32.371Z,44.34
2016-05-03T08:53:32.374Z,45.37
2016-05-03T08:54:32.361Z,46.02
2016-05-03T08:55:32.364Z,44.6
2016-05-03T08:56:32.367Z,45.39
2016-05-03T08:57:32.353Z,42.8
2016-05-03T08:58:32.356Z,42.24
2016-05-03T08:59:32.391Z,42.24
2016-05-03T09:00:32.361Z,43.78
2016-05-03T09:01:32.333Z,45.95
2016-05-03T09:02:32.335Z,46.31
2016-05-03T09:03:32.338Z,48.18
2016-05-03T09:04:32.341Z,47.13
2016-05-03T09:05:32.344Z,48.66
2016-05-03T09:06:32.331Z,48.25
2016-05-03T09:07:33.334Z,49.69
2016-05-03T09:08:32.321Z,50.08
2016-05-03T09:09:32.307Z,49
2016-05-03T09:10:32.310Z,50.17
2016-05-03T09:11:32.313Z,53
2016-05-03T09:12:32.301Z,52.91
2016-05-03T09:13:32.318Z,53.83
2016-05-03T09:14:32.290Z,55.41
2016-05-03T09:15:32.292Z,58.09
2016-05-03T09:16:32.295Z,60.06
2016-05-03T09:17:32.282Z,61.66
2016-05-03T09:18:32.284Z,61.09
2016-05-03T09:19:32.272Z,61.85
2016-05-03T09:20:32.290Z,61.66
2016-05-03T09:21:32.261Z,60.61
2016-05-03T09:22:32.874Z,59.47
2016-05-03T09:23:32.252Z,61.09
2016-05-03T09:24:32.098Z,59.84
2016-05-03T09:25:32.241Z,59.75
2016-05-03T09:26:32.228Z,61.16
2016-05-03T09:27:32.231Z,60.3
2016-05-03T09:28:32.219Z,58.61
2016-05-03T09:29:32.221Z,56.72
2016-05-03T09:30:32.208Z,54.86
2016-05-03T09:31:32.210Z,51.63
2016-05-03T09:32:32.197Z,50.38
2016-05-03T09:33:32.199Z,50.41
2016-05-03T09:34:32.188Z,50.51
2016-05-03T09:35:32.174Z,49.36
2016-05-03T09:36:32.177Z,47.73
2016-05-03T09:37:32.165Z,46.48
2016-05-03T09:38:32.167Z,49.14
2016-05-03T09:39:32.154Z,49.11
2016-05-03T09:40:32.141Z,49.76
2016-05-03T09:41:32.143Z,49.79
2016-05-03T09:42:32.146Z,50.26
2016-05-03T09:43:32.149Z,49.02
2016-05-03T09:44:32.137Z,49.05
2016-05-03T09:45:32.123Z,47.99
2016-05-03T09:46:32.126Z,48.95
2016-05-03T09:47:32.113Z,50.2
2016-05-03T09:48:32.115Z,48.97
2016-05-03T09:49:32.103Z,50.2
2016-05-03T09:50:32.105Z,47.73
2016-05-03T09:51:32.093Z,48.88
2016-05-03T09:52:32.095Z,49.16
2016-05-03T09:53:32.082Z,50.51
2016-05-03T09:54:32.086Z,50.2
2016-05-03T09:55:32.088Z,51.15
2016-05-03T09:56:32.075Z,49.5
2016-05-03T09:57:32.062Z,50.43
2016-05-03T09:58:32.064Z,50.43
2016-05-03T09:59:32.052Z,51.75
2016-05-03T10:00:32.054Z,53.66
2016-05-03T10:01:31.901Z,56.43
2016-05-03T10:02:32.044Z,59.75
2016-05-03T10:03:32.030Z,61.54
2016-05-03T10:04:32.018Z,62.68
2016-05-03T10:05:32.021Z,63.07
2016-05-03T10:06:31.867Z,66.47
2016-05-03T10:07:31.854Z,67.4
2016-05-03T10:08:31.998Z,69.49
2016-05-03T10:09:31.843Z,70.92
2016-05-03T10:10:31.987Z,69.68
2016-05-03T10:11:31.990Z,68.44
2016-05-03T10:12:31.977Z,68.26
2016-05-03T10:13:31.964Z,65.96
2016-05-03T10:14:31.951Z,65.87
2016-05-03T10:15:31.954Z,67.11
2016-05-03T10:16:31.941Z,69.31
2016-05-03T10:17:31.928Z,68.92
2016-05-03T10:18:31.775Z,68.67
2016-05-03T10:19:31.917Z,67.81
2016-05-03T10:20:31.906Z,67.62
2016-05-03T10:21:31.892Z,68.8
2016-05-03T10:22:32.206Z,67.97
2016-05-03T10:23:31.725Z,67.05
2016-05-03T10:24:31.728Z,62.08
2016-05-03T10:25:31.872Z,61.88
2016-05-03T10:26:31.875Z,62.74
2016-05-03T10:27:31.689Z,62.94
2016-05-03T10:28:31.848Z,62.65
2016-05-03T10:29:31.836Z,62.94
2016-05-03T10:30:31.822Z,63.51
2016-05-03T10:31:31.825Z,64.56
2016-05-03T10:32:31.813Z,57.8
2016-05-03T10:33:31.815Z,58.24
2016-05-03T10:34:31.802Z,60.16
2016-05-03T10:35:31.789Z,58.24
2016-05-03T10:36:31.792Z,56.83
2016-05-03T10:37:31.638Z,56.93
2016-05-03T10:38:31.782Z,57.89
2016-05-03T10:39:31.769Z,58.65
2016-05-03T10:40:31.615Z,54.77
2016-05-03T10:41:31.790Z,54.77
2016-05-03T10:42:31.761Z,54.14
2016-05-03T10:43:31.748Z,53.37
2016-05-03T10:44:31.751Z,51.39
2016-05-03T10:45:31.738Z,52.01
2016-05-03T10:46:31.740Z,50.96
2016-05-03T10:47:31.743Z,48.13
2016-05-03T10:48:31.730Z,48.93
2016-05-03T10:49:31.733Z,48.83
2016-05-03T10:50:31.720Z,47.27
2016-05-03T10:51:31.723Z,49.55
2016-05-03T10:52:31.726Z,49.16
2016-05-03T10:53:31.556Z,49.16
2016-05-03T10:54:31.714Z,50.38
2016-05-03T10:55:31.703Z,50.38
2016-05-03T10:56:31.705Z,50.51
2016-05-03T10:57:31.708Z,48.85
2016-05-03T10:58:31.695Z,48.78
2016-05-03T10:59:31.697Z,47.94
2016-05-03T11:00:31.684Z,50.96
2016-05-03T11:01:31.687Z,46.48
2016-05-03T11:02:31.689Z,46.65
2016-05-03T11:03:31.536Z,45.86
2016-05-03T11:04:31.680Z,46.79
2016-05-03T11:05:31.682Z,48.97
2016-05-03T11:06:31.685Z,47.82
2016-05-03T11:07:32.516Z,48.18
2016-05-03T11:08:31.674Z,49.43
2016-05-03T11:09:31.663Z,49.33
2016-05-03T11:10:31.508Z,49.16
2016-05-03T11:11:31.667Z,48.9
2016-05-03T11:12:31.671Z,44.92
2016-05-03T11:13:31.656Z,46
2016-05-03T11:14:31.659Z,46.12
2016-05-03T11:15:31.865Z,43.35
2016-05-03T11:16:31.649Z,42.18
2016-05-03T11:17:31.652Z,42.25
2016-05-03T11:18:31.654Z,42.81
2016-05-03T11:19:31.657Z,42.88
2016-05-03T11:20:31.487Z,42.86
2016-05-03T11:21:31.663Z,42.77
2016-05-03T11:22:31.634Z,42.79
2016-05-03T11:23:31.637Z,40.12
2016-05-03T11:24:31.640Z,39.45
2016-05-03T11:25:31.486Z,40.05
2016-05-03T11:26:31.645Z,40.72
2016-05-03T11:27:31.648Z,40.06
2016-05-03T11:28:31.634Z,40.47
2016-05-03T11:29:31.653Z,37.02
2016-05-03T11:30:31.484Z,38.26
2016-05-03T11:31:31.533Z,40.78
2016-05-03T11:32:31.645Z,37.43
2016-05-03T11:33:31.633Z,36.76
2016-05-03T11:34:31.635Z,37.7
2016-05-03T11:35:31.638Z,37.68
2016-05-03T11:36:31.641Z,38.84
2016-05-03T11:37:31.643Z,40.08
2016-05-03T11:38:31.646Z,37.22
2016-05-03T11:39:31.649Z,37.3
2016-05-03T11:40:31.479Z,38.32
2016-05-03T11:41:31.639Z,38.68
2016-05-03T11:42:31.641Z,40.39
2016-05-03T11:43:31.644Z,39.06
2016-05-03T11:44:31.647Z,41.1
2016-05-03T11:45:31.634Z,37.95
2016-05-03T11:46:31.636Z,37.55
2016-05-03T11:47:31.639Z,39.26
2016-05-03T11:48:31.642Z,37.91
2016-05-03T11:49:31.645Z,40.14
2016-05-03T11:50:31.632Z,37.08
2016-05-03T11:51:31.478Z,34.8
2016-05-03T11:52:32.528Z,35.93
2016-05-03T11:53:31.498Z,35.08
2016-05-03T11:54:31.643Z,36.74
2016-05-03T11:55:31.629Z,34.25
2016-05-03T11:56:31.648Z,35.52
2016-05-03T11:57:31.634Z,32.36
2016-05-03T11:58:31.637Z,33.51
2016-05-03T11:59:31.640Z,34.19
2016-05-03T12:00:31.642Z,34.98
2016-05-03T12:01:31.662Z,33.44
2016-05-03T12:02:31.492Z,31.62
2016-05-03T12:03:31.650Z,31.8
2016-05-03T12:04:31.653Z,32.75
2016-05-03T12:05:31.719Z,33.77
2016-05-03T12:06:31.659Z,33.47
2016-05-03T12:07:32.444Z,35.3
2016-05-03T12:08:31.649Z,31.85
2016-05-03T12:09:31.667Z,34.81
2016-05-03T12:10:31.670Z,30.4
2016-05-03T12:11:31.657Z,31.56
2016-05-03T12:12:31.660Z,31.18
2016-05-03T12:13:31.505Z,30.69
2016-05-03T12:14:31.666Z,34.06
2016-05-03T12:15:31.668Z,32.34
2016-05-03T12:16:31.670Z,32.33
2016-05-03T12:17:31.673Z,31.65
2016-05-03T12:18:31.519Z,32.82
2016-05-03T12:19:31.710Z,31.12
2016-05-03T12:20:31.682Z,30.27
2016-05-03T12:21:31.543Z,28.64
2016-05-03T12:22:31.687Z,28.73
2016-05-03T12:23:37.080Z,28.36
2016-05-03T12:24:31.693Z,29.58
2016-05-03T12:25:31.710Z,27.72
2016-05-03T12:26:31.697Z,27.5
2016-05-03T12:27:31.700Z,29.3
2016-05-03T12:28:31.703Z,31.1
2016-05-03T12:29:31.705Z,32.62
2016-05-03T12:30:31.708Z,34.06
2016-05-03T12:31:31.711Z,34.73
2016-05-03T12:32:31.542Z,36.72
2016-05-03T12:33:31.701Z,37.2
2016-05-03T12:34:31.703Z,37.68
2016-05-03T12:35:31.689Z,37.11
2016-05-03T12:36:31.692Z,35.28
2016-05-03T12:37:32.805Z,35.28
2016-05-03T12:38:31.558Z,35.88
2016-05-03T12:39:31.701Z,35.21
2016-05-03T12:40:31.688Z,34.19
2016-05-03T12:41:31.691Z,34.78
2016-05-03T12:42:31.677Z,35.47
2016-05-03T12:43:31.696Z,32.98
2016-05-03T12:44:31.698Z,31.85
2016-05-03T12:45:31.686Z,31.46
2016-05-03T12:46:31.689Z,30.02
2016-05-03T12:47:31.691Z,29.9
2016-05-03T12:48:31.694Z,31.23
2016-05-03T12:49:31.681Z,32.65
2016-05-03T12:50:31.684Z,31.88
2016-05-03T12:51:31.670Z,32.57
2016-05-03T12:52:32.689Z,32.67
2016-05-03T12:53:31.520Z,33.74
2016-05-03T12:54:31.522Z,29.81